Latest Weather Observations for Lord Howe Island Windy Point

IDN60801

Issued at 1:32 pm EST Tuesday 22 August 2017 (issued every 30 minutes, with the page automatically refreshed every 10 minutes)

About weather observations | Map of weather stations | Latest weather observations for NSW | Other Formats
Station Details ID: 200715 Name: LORD HOWE ISLAND WINDY POINT Lat: -31.54 Lon: 159.07 Height: 4.0 m
Data from the previous 72 hours. | See also: Recent months for locations in New South Wales
Date/Time
EST
Temp
°C
App
Temp
°C
Dew
Point
°C
Rel
Hum
%
Delta-T
°C
Wind Press
QNH
hPa
Press
MSL
hPa
Rain since
9am
mm
Dir  Spd
km/h
Gust
km/h
Spd
kts
Gust
kts
22/01:30pm - - - - - SW 37 48 20 26 - - -
22/01:21pm - - - - - W 32 46 17 25 - - -
22/01:00pm - - - - - NW 19 26 10 14 - - -
22/12:30pm - - - - - NNW 17 24 9 13 - - -
22/12:00pm - - - - - NW 22 30 12 16 - - -
22/11:30am - - - - - WNW 19 28 10 15 - - -
22/11:00am - - - - - NW 30 35 16 19 - - -
22/10:50am - - - - - WNW 32 44 17 24 - - -
22/10:33am - - - - - WNW 30 44 16 24 - - -
22/10:30am - - - - - NW 22 41 12 22 - - -
22/10:00am - - - - - NW 15 26 8 14 - - -
22/09:30am - - - - - W 6 11 3 6 - - -
22/09:00am - - - - - NNW 20 33 11 18 - - -
22/08:30am - - - - - NW 20 33 11 18 - - -
22/08:00am - - - - - NW 13 20 7 11 - - -
22/07:30am - - - - - NW 17 26 9 14 - - -
22/07:00am - - - - - N 9 17 5 9 - - -
22/06:30am - - - - - NNW 9 19 5 10 - - -
22/06:00am - - - - - NNW 9 13 5 7 - - -
22/05:30am - - - - - NNW 9 15 5 8 - - -
22/05:00am - - - - - N 9 13 5 7 - - -
22/04:30am - - - - - NW 6 11 3 6 - - -
22/04:00am - - - - - NNW 7 13 4 7 - - -
22/03:30am - - - - - N 7 13 4 7 - - -
22/03:00am - - - - - NNE 7 13 4 7 - - -
22/02:30am - - - - - NE 9 17 5 9 - - -
22/02:00am - - - - - NE 11 13 6 7 - - -
22/01:30am - - - - - NE 9 13 5 7 - - -
22/01:00am - - - - - NE 7 9 4 5 - - -
22/12:30am - - - - - ENE 11 15 6 8 - - -
22/12:00am - - - - - ENE 11 15 6 8 - - -
 
Date/Time
EST
Temp
°C
App
Temp
°C
Dew
Point
°C
Rel
Hum
%
Delta-T
°C
Wind Press
QNH
hPa
Press
MSL
hPa
Rain since
9am
mm
Dir  Spd
km/h
Gust
km/h
Spd
kts
Gust
kts
21/11:30pm - - - - - ENE 13 17 7 9 - - -
21/11:00pm - - - - - N 15 20 8 11 - - -
21/10:30pm - - - - - N 13 19 7 10 - - -
21/10:00pm - - - - - NE 7 9 4 5 - - -
21/09:30pm - - - - - NNE 7 9 4 5 - - -
21/09:00pm - - - - - N 7 7 4 4 - - -
21/08:30pm - - - - - NNE 6 7 3 4 - - -
21/08:00pm - - - - - ENE 7 7 4 4 - - -
21/07:30pm - - - - - ENE 6 7 3 4 - - -
21/07:00pm - - - - - ESE 6 7 3 4 - - -
21/06:30pm - - - - - ESE 6 7 3 4 - - -
21/06:00pm - - - - - ESE 6 6 3 3 - - -
21/05:30pm - - - - - ESE 6 7 3 4 - - -
21/05:00pm - - - - - SSW 9 13 5 7 - - -
21/04:30pm - - - - - SSW 11 15 6 8 - - -
21/04:00pm - - - - - SSW 13 17 7 9 - - -
21/03:30pm - - - - - SSW 11 15 6 8 - - -
21/03:00pm - - - - - SSW 20 24 11 13 - - -
21/02:30pm - - - - - SW 15 19 8 10 - - -
21/02:00pm - - - - - SSW 15 19 8 10 - - -
21/01:30pm - - - - - SSW 17 20 9 11 - - -
21/01:00pm - - - - - SSW 19 22 10 12 - - -
21/12:30pm - - - - - SSW 19 22 10 12 - - -
21/12:00pm - - - - - SSW 20 26 11 14 - - -
21/11:30am - - - - - SSW 19 22 10 12 - - -
21/11:00am - - - - - S 22 28 12 15 - - -
21/10:30am - - - - - SSW 15 20 8 11 - - -
21/10:00am - - - - - SW 9 15 5 8 - - -
21/09:30am - - - - - SW 20 26 11 14 - - -
21/09:00am - - - - - S 19 32 10 17 - - -
21/08:30am - - - - - SSW 19 26 10 14 - - -
21/08:00am - - - - - SW 15 33 8 18 - - -
21/07:30am - - - - - S 17 28 9 15 - - -
21/07:00am - - - - - S 19 32 10 17 - - -
21/06:30am - - - - - S 26 37 14 20 - - -
21/06:00am - - - - - S 19 30 10 16 - - -
21/05:30am - - - - - S 28 37 15 20 - - -
21/05:00am - - - - - S 24 35 13 19 - - -
21/04:30am - - - - - S 26 35 14 19 - - -
21/04:00am - - - - - SSW 24 30 13 16 - - -
21/03:30am - - - - - S 22 33 12 18 - - -
21/03:00am - - - - - SSW 32 43 17 23 - - -
21/02:30am - - - - - S 28 41 15 22 - - -
21/02:24am - - - - - S 28 39 15 21 - - -
21/02:00am - - - - - SSW 37 44 20 24 - - -
21/01:30am - - - - - S 32 54 17 29 - - -
21/01:27am - - - - - S 24 54 13 29 - - -
21/01:00am - - - - - SSW 35 44 19 24 - - -
21/12:35am - - - - - S 30 48 16 26 - - -
21/12:30am - - - - - S 30 43 16 23 - - -
21/12:00am - - - - - S 26 39 14 21 - - -
 
Date/Time
EST
Temp
°C
App
Temp
°C
Dew
Point
°C
Rel
Hum
%
Delta-T
°C
Wind Press
QNH
hPa
Press
MSL
hPa
Rain since
9am
mm
Dir  Spd
km/h
Gust
km/h
Spd
kts
Gust
kts
20/11:30pm - - - - - S 35 46 19 25 - - -
20/11:15pm - - - - - SSW 35 57 19 31 - - -
20/11:00pm - - - - - S 33 43 18 23 - - -
20/10:30pm - - - - - S 32 54 17 29 - - -
20/10:24pm - - - - - S 35 54 19 29 - - -
20/10:00pm - - - - - S 33 41 18 22 - - -
20/09:30pm - - - - - SSW 35 43 19 23 - - -
20/09:00pm - - - - - S 37 44 20 24 - - -
20/08:30pm - - - - - SSW 35 44 19 24 - - -
20/08:00pm - - - - - SSW 37 46 20 25 - - -
20/07:30pm - - - - - SSW 41 54 22 29 - - -
20/07:00pm - - - - - SSW 43 52 23 28 - - -
20/06:30pm - - - - - SSW 46 54 25 29 - - -
20/06:00pm - - - - - S 43 52 23 28 - - -
20/05:30pm - - - - - SSW 46 57 25 31 - - -
20/05:00pm - - - - - S 48 59 26 32 - - -
20/04:30pm - - - - - S 46 57 25 31 - - -
20/04:00pm - - - - - SSW 48 61 26 33 - - -
20/03:30pm - - - - - SSW 50 61 27 33 - - -
20/03:00pm - - - - - SSW 48 59 26 32 - - -
20/02:30pm - - - - - SSW 48 59 26 32 - - -
20/02:00pm - - - - - SSW 43 52 23 28 - - -
20/01:32pm - - - - - SSW 50 69 27 37 - - -
20/01:30pm - - - - - SSW 48 63 26 34 - - -
20/01:00pm - - - - - SSW 50 61 27 33 - - -
20/12:30pm - - - - - SSW 52 63 28 34 - - -
20/12:00pm - - - - - SSW 46 61 25 33 - - -
20/11:30am - - - - - SSW 50 61 27 33 - - -
20/11:00am - - - - - SSW 48 69 26 37 - - -
20/10:33am - - - - - SSW 46 65 25 35 - - -
20/10:30am - - - - - SSW 48 63 26 34 - - -
20/10:08am - - - - - SSW 46 65 25 35 - - -
20/10:00am - - - - - SSW 50 63 27 34 - - -
20/09:30am - - - - - SSW 46 57 25 31 - - -
20/09:02am - - - - - SSW 41 59 22 32 - - -
20/09:00am - - - - - SSW 41 57 22 31 - - -
20/08:33am - - - - - SSW 50 72 27 39 - - -
20/08:30am - - - - - SSW 50 59 27 32 - - -
20/08:15am - - - - - SSW 50 69 27 37 - - -
20/08:00am - - - - - S 46 63 25 34 - - -
20/07:30am - - - - - SSW 48 61 26 33 - - -
20/07:07am - - - - - S 46 65 25 35 - - -
20/07:00am - - - - - S 54 65 29 35 - - -
20/06:36am - - - - - S 52 70 28 38 - - -
20/06:30am - - - - - SSW 56 69 30 37 - - -
20/06:00am - - - - - SSW 52 72 28 39 - - -
20/05:58am - - - - - SSW 54 72 29 39 - - -
20/05:30am - - - - - SSW 50 63 27 34 - - -
20/05:00am - - - - - SSW 54 67 29 36 - - -
20/04:30am - - - - - SSW 57 70 31 38 - - -
20/04:11am - - - - - S 48 67 26 36 - - -
20/04:00am - - - - - SSW 54 69 29 37 - - -
20/03:30am - - - - - SSW 52 69 28 37 - - -
20/03:00am - - - - - SSW 52 72 28 39 - - -
20/02:55am - - - - - SSW 52 72 28 39 - - -
20/02:30am - - - - - SSW 52 65 28 35 - - -
20/02:00am - - - - - SSW 48 67 26 36 - - -
20/01:55am - - - - - SSW 48 67 26 36 - - -
20/01:30am - - - - - SSW 54 69 29 37 - - -
20/01:03am - - - - - SSW 52 70 28 38 - - -
20/01:00am - - - - - SSW 50 65 27 35 - - -
20/12:30am - - - - - SSW 52 61 28 33 - - -
20/12:19am - - - - - SSW 54 72 29 39 - - -
20/12:12am - - - - - SSW 50 61 27 33 - - -
20/12:00am - - - - - S 50 67 27 36 - - -
 
Date/Time
EST
Temp
°C
App
Temp
°C
Dew
Point
°C
Rel
Hum
%
Delta-T
°C
Wind Press
QNH
hPa
Press
MSL
hPa
Rain since
9am
mm
Dir  Spd
km/h
Gust
km/h
Spd
kts
Gust
kts
19/11:56pm - - - - - S 50 69 27 37 - - -
19/11:30pm - - - - - SSW 54 69 29 37 - - -
19/11:08pm - - - - - SSW 56 76 30 41 - - -
19/11:00pm - - - - - SSW 57 72 31 39 - - -
19/10:53pm - - - - - SSW 54 72 29 39 - - -
19/10:30pm - - - - - SSW 56 70 30 38 - - -
19/10:00pm - - - - - SSW 57 70 31 38 - - -
19/09:30pm - - - - - SSW 57 72 31 39 - - -
19/09:15pm - - - - - SSW 57 82 31 44 - - -
19/09:00pm - - - - - SSW 50 67 27 36 - - -
19/08:30pm - - - - - SSW 52 65 28 35 - - -
19/08:04pm - - - - - SSW 52 72 28 39 - - -
19/08:00pm - - - - - SSW 54 67 29 36 - - -
19/07:30pm - - - - - SSW 57 76 31 41 - - -
19/07:00pm - - - - - SSW 61 80 33 43 - - -
19/06:56pm - - - - - SSW 54 80 29 43 - - -
19/06:30pm - - - - - SSW 54 61 29 33 - - -
19/06:00pm - - - - - SW 48 69 26 37 - - -
19/05:37pm - - - - - SW 52 70 28 38 - - -
19/05:30pm - - - - - SW 50 65 27 35 - - -
19/05:00pm - - - - - SW 50 63 27 34 - - -
19/04:30pm - - - - - SW 50 65 27 35 - - -
19/04:15pm - - - - - SW 50 69 27 37 - - -
19/04:00pm - - - - - SW 54 67 29 36 - - -
19/03:30pm - - - - - SW 48 59 26 32 - - -
19/03:00pm - - - - - SW 46 59 25 32 - - -
19/02:30pm - - - - - SW 46 57 25 31 - - -
19/02:00pm - - - - - SW 43 50 23 27 - - -

Other Formats:

Comma delimited format used in spreadsheet applications
http://www.bom.gov.au/fwo/IDN60801/IDN60801.95995.axf

JavaScript Object Notation format (JSON) in row-major order
http://www.bom.gov.au/fwo/IDN60801/IDN60801.95995.json